Todd G — WRC6671 — position and weather

sailwx.info

Track history (hours):
 
Tides and Currents Weather Stations Pressure Air Temp Water Temp Dewpoint Dewpoint Depression Visibility Wind Speed Wind Dir Waves Ship Positions

Todd G

Owner: Harbor Towing & Fleeting, Inc., Metairie, LA. More information available from US FCC via Universal Licensing System and Coast Guard Vessel Documentation Center.

Last reported at 2015-Jan-31 16:31 UTC. Time now 2015-Jan-31 17:48 UTC.
Position N 30°01' W 089°53'.

Length 16 m.

Type: Towing. MMSI: 366988470.

Date/timePositionNaut miles runAvg speedWind from/ knotsBaromVisibWave heightAir tempDewpointWater temp
2015-Jan-31 16:31N 30°01' W 089°53'5 4.4
2015-Jan-31 15:23N 29°60' W 089°59'4 0.3
2015-Jan-31 01:11N 29°56' W 090°00'0 0.0
2015-Jan-31 00:24N 29°56' W 090°00'0 0.0
2015-Jan-30 22:12N 29°56' W 090°00'0 0.0
2015-Jan-30 20:28N 29°56' W 090°00'0 0.0
2015-Jan-30 19:06N 29°56' W 090°00'1 1.5
2015-Jan-30 18:33N 29°57' W 090°01'1 0.9
2015-Jan-30 17:33N 29°57' W 090°02'1 0.8
2015-Jan-30 16:33N 29°58' W 090°02'2 1.8
2015-Jan-30 15:33N 29°60' W 090°01'2 2.1
2015-Jan-30 14:33N 29°58' W 090°02'0 0.1
2015-Jan-30 13:31N 29°58' W 090°02'0 0.0
2015-Jan-30 12:33N 29°58' W 090°02'0 0.0
2015-Jan-30 00:15N 29°58' W 090°02'0 0.0
2015-Jan-29 23:21N 29°58' W 090°02'0 0.0
2015-Jan-29 22:33N 29°58' W 090°02'0 0.2
2015-Jan-29 21:31N 29°58' W 090°02'6 1.9
2015-Jan-29 18:10N 30°01' W 089°55'4 6.5
2015-Jan-29 17:32N 29°60' W 089°59'3 3.0
2015-Jan-29 16:33N 29°58' W 090°02'1 0.5
2015-Jan-29 15:34N 29°57' W 090°01'1 0.8
2015-Jan-29 14:31N 29°57' W 090°01'0 0.1
2015-Jan-29 11:27N 29°56' W 090°00'0 0.0
2015-Jan-29 09:17N 29°56' W 090°00'0 0.0
2015-Jan-29 08:32N 29°56' W 090°00'0 0.0
2015-Jan-29 07:23N 29°56' W 090°00'0 0.0
2015-Jan-29 06:24N 29°56' W 090°00'0 0.0
2015-Jan-29 03:12N 29°56' W 090°00'0 0.0
2015-Jan-29 02:33N 29°56' W 090°00'2 0.5
2015-Jan-28 22:18N 29°58' W 090°02'1 1.3
2015-Jan-28 21:30N 29°58' W 090°03'1 1.4
2015-Jan-28 20:26N 29°58' W 090°02'0 0.5
2015-Jan-28 19:32N 29°58' W 090°02'0 0.4
2015-Jan-28 18:33N 29°59' W 090°01'0 0.4
2015-Jan-28 17:32N 29°58' W 090°02'0 0.0
2015-Jan-28 16:32N 29°58' W 090°02'1 0.7
2015-Jan-28 15:31N 29°59' W 090°01'0 0.0
2015-Jan-28 14:32N 29°59' W 090°01'1 0.8
2015-Jan-28 13:24N 29°60' W 090°01'6 6.4
2015-Jan-28 12:32N 30°01' W 089°55'2 1.5
2015-Jan-28 11:14N 30°01' W 089°53'0 0.4
2015-Jan-28 10:31N 30°01' W 089°53'5 5.4
2015-Jan-28 09:33N 29°60' W 089°59'3 3.0
2015-Jan-28 08:33N 29°58' W 090°02'3 2.9
2015-Jan-28 07:32N 29°56' W 089°59'1 0.0
2015-Jan-27 11:27N 29°56' W 089°58'0 0.0
2015-Jan-27 09:20N 29°56' W 089°58'0 0.0
2015-Jan-27 08:31N 29°56' W 089°58'2 0.9
2015-Jan-27 06:31N 29°56' W 090°00'2 1.8
2015-Jan-27 05:33N 29°56' W 089°59'0 0.2
2015-Jan-27 04:31N 29°56' W 089°58'0 0.0
2015-Jan-27 03:23N 29°56' W 089°58'0 0.0
2015-Jan-27 02:33N 29°56' W 089°58'0 0.0
2015-Jan-26 19:32N 29°56' W 089°58'0 0.0
2015-Jan-26 18:20N 29°56' W 089°58'0 0.0
2015-Jan-26 16:15N 29°56' W 089°58'0 0.0
2015-Jan-26 15:29N 29°56' W 089°58'4 0.6
2015-Jan-26 08:33N 29°60' W 090°01'1 0.5
2015-Jan-26 07:32N 29°60' W 090°01'1 1.0
2015-Jan-26 06:33N 29°59' W 090°01'2 1.6
2015-Jan-26 05:32N 29°57' W 090°02'1 0.5
2015-Jan-26 04:33N 29°57' W 090°02'2 1.9
2015-Jan-26 03:27N 29°56' W 090°00'0 0.3
2015-Jan-26 02:33N 29°56' W 090°00'0 0.0
2015-Jan-26 01:33N 29°56' W 090°00'2 1.8
2015-Jan-26 00:32N 29°55' W 089°58'1 1.0
2015-Jan-25 23:32N 29°55' W 089°57'5 4.6
2015-Jan-25 22:33N 29°58' W 090°02'2 2.3
2015-Jan-25 21:33N 29°60' W 090°00'2 2.2
2015-Jan-25 20:30N 29°58' W 090°02'3 0.2
2015-Jan-24 23:13N 29°60' W 089°59'3 4.2
2015-Jan-24 22:26N 29°58' W 090°02'0 0.3
2015-Jan-24 21:31N 29°58' W 090°02'0 0.2
2015-Jan-24 20:29N 29°58' W 090°02'2 2.0
2015-Jan-24 19:32N 29°60' W 090°01'2 0.6
2015-Jan-24 16:29N 29°60' W 089°59'3 3.1
2015-Jan-24 15:32N 29°58' W 090°02'0 0.3
2015-Jan-24 14:28N 29°58' W 090°02'3 2.4
2015-Jan-24 13:23N 29°56' W 089°60'1 1.0
2015-Jan-24 12:31N 29°56' W 090°00'0 0.0
2015-Jan-24 11:33N 29°56' W 090°00'0 0.0
2015-Jan-24 10:32N 29°56' W 090°00'0 0.0
2015-Jan-24 09:24N 29°56' W 090°00'0 0.0
2015-Jan-24 08:32N 29°56' W 090°00'0 0.0
2015-Jan-24 07:33N 29°56' W 090°00'0 0.1
2015-Jan-24 06:32N 29°56' W 090°00'2 2.1
2015-Jan-24 05:32N 29°55' W 089°58'1 0.5
2015-Jan-24 04:16N 29°55' W 089°59'1 1.4
2015-Jan-24 03:32N 29°54' W 089°59'2 2.2
2015-Jan-24 02:33N 29°55' W 089°57'0 0.1
2015-Jan-24 01:17N 29°55' W 089°57'5 6.2
2015-Jan-24 00:33N 29°58' W 090°02'3 2.6
2015-Jan-23 23:32N 29°60' W 089°60'2 1.3
2015-Jan-23 22:13N 30°00' W 089°58'0 0.1
2015-Jan-23 20:07N 30°00' W 089°58'4 5.7
2015-Jan-23 19:26N 29°58' W 090°02'1 0.8
2015-Jan-23 18:27N 29°57' W 090°01'1 1.0
2015-Jan-23 17:10N 29°56' W 090°00'0 0.0
2015-Jan-23 16:20N 29°56' W 090°00'0 0.0
2015-Jan-23 15:04N 29°56' W 090°00'0 0.0
2015-Jan-23 14:17N 29°56' W 090°00'0 0.0
2015-Jan-23 13:27N 29°56' W 090°00'0 0.0
2015-Jan-23 11:25N 29°56' W 090°00'0 0.0
2015-Jan-23 10:16N 29°56' W 090°00'0 0.1
2015-Jan-23 09:32N 29°56' W 090°00'1 0.3
2015-Jan-23 07:29N 29°56' W 089°60'1 0.5
2015-Jan-23 06:17N 29°56' W 090°00'0 0.0
2015-Jan-23 05:11N 29°56' W 090°00'0 0.0
2015-Jan-23 04:29N 29°56' W 090°00'0 0.0
2015-Jan-23 03:29N 29°56' W 090°00'0 0.0
2015-Jan-23 02:23N 29°56' W 090°00'0 0.0
2015-Jan-23 01:32N 29°56' W 090°00'0 0.0
2015-Jan-23 00:27N 29°56' W 090°00'3 0.3
2015-Jan-22 14:14N 29°59' W 090°01'0 0.1
2015-Jan-22 12:30N 29°59' W 090°01'0 0.0
2015-Jan-22 11:15N 29°59' W 090°01'0 0.0
2015-Jan-22 10:23N 29°59' W 090°01'0 0.0
2015-Jan-22 09:06N 29°59' W 090°01'0 0.0
2015-Jan-22 08:34N 29°59' W 090°01'0 0.0
2015-Jan-22 07:31N 29°59' W 090°01'0 0.0
2015-Jan-22 06:33N 29°59' W 090°01'0 0.0
2015-Jan-22 05:29N 29°59' W 090°01'0 0.0
2015-Jan-22 04:32N 29°59' W 090°01'0 0.0
2015-Jan-22 03:30N 29°59' W 090°01'0 0.0
2015-Jan-22 02:33N 29°59' W 090°01'0 0.0
2015-Jan-22 01:32N 29°59' W 090°01'0 0.0
2015-Jan-22 00:31N 29°59' W 090°01'0 0.3
2015-Jan-21 23:31N 29°59' W 090°01'0 0.0
2015-Jan-21 22:50N 29°59' W 090°01'0 0.0
2015-Jan-21 22:46N 29°59' W 090°01'0 0.0
2015-Jan-21 22:31N 29°59' W 090°01'0 0.1
2015-Jan-21 21:20N 29°59' W 090°01'0 0.0
2015-Jan-21 20:32N 29°59' W 090°01'0 0.0
2015-Jan-21 19:32N 29°59' W 090°01'  
Track history (hours):
 
Tides and Currents Weather Stations Pressure Air Temp Water Temp Dewpoint Dewpoint Depression Visibility Wind Speed Wind Dir Waves Ship Positions

Todd G

Owner: Harbor Towing & Fleeting, Inc., Metairie, LA. More information available from US FCC via Universal Licensing System and Coast Guard Vessel Documentation Center.

Last reported at 2015-Jan-31 16:31 UTC. Time now 2015-Jan-31 17:48 UTC.
Position N 30°01' W 089°53'.

Length 16 m.

Type: Towing. MMSI: 366988470.

Date/timePositionNaut miles runAvg speedWind from/ knotsBaromVisibWave heightAir tempDewpointWater temp
2015-Jan-31 16:31N 30°01' W 089°53'5 4.4
2015-Jan-31 15:23N 29°60' W 089°59'4 0.3
2015-Jan-31 01:11N 29°56' W 090°00'0 0.0
2015-Jan-31 00:24N 29°56' W 090°00'0 0.0
2015-Jan-30 22:12N 29°56' W 090°00'0 0.0
2015-Jan-30 20:28N 29°56' W 090°00'0 0.0
2015-Jan-30 19:06N 29°56' W 090°00'1 1.5
2015-Jan-30 18:33N 29°57' W 090°01'1 0.9
2015-Jan-30 17:33N 29°57' W 090°02'1 0.8
2015-Jan-30 16:33N 29°58' W 090°02'2 1.8
2015-Jan-30 15:33N 29°60' W 090°01'2 2.1
2015-Jan-30 14:33N 29°58' W 090°02'0 0.1
2015-Jan-30 13:31N 29°58' W 090°02'0 0.0
2015-Jan-30 12:33N 29°58' W 090°02'0 0.0
2015-Jan-30 00:15N 29°58' W 090°02'0 0.0
2015-Jan-29 23:21N 29°58' W 090°02'0 0.0
2015-Jan-29 22:33N 29°58' W 090°02'0 0.2
2015-Jan-29 21:31N 29°58' W 090°02'6 1.9
2015-Jan-29 18:10N 30°01' W 089°55'4 6.5
2015-Jan-29 17:32N 29°60' W 089°59'3 3.0
2015-Jan-29 16:33N 29°58' W 090°02'1 0.5
2015-Jan-29 15:34N 29°57' W 090°01'1 0.8
2015-Jan-29 14:31N 29°57' W 090°01'0 0.1
2015-Jan-29 11:27N 29°56' W 090°00'0 0.0
2015-Jan-29 09:17N 29°56' W 090°00'0 0.0
2015-Jan-29 08:32N 29°56' W 090°00'0 0.0
2015-Jan-29 07:23N 29°56' W 090°00'0 0.0
2015-Jan-29 06:24N 29°56' W 090°00'0 0.0
2015-Jan-29 03:12N 29°56' W 090°00'0 0.0
2015-Jan-29 02:33N 29°56' W 090°00'2 0.5
2015-Jan-28 22:18N 29°58' W 090°02'1 1.3
2015-Jan-28 21:30N 29°58' W 090°03'1 1.4
2015-Jan-28 20:26N 29°58' W 090°02'0 0.5
2015-Jan-28 19:32N 29°58' W 090°02'0 0.4
2015-Jan-28 18:33N 29°59' W 090°01'0 0.4
2015-Jan-28 17:32N 29°58' W 090°02'0 0.0
2015-Jan-28 16:32N 29°58' W 090°02'1 0.7
2015-Jan-28 15:31N 29°59' W 090°01'0 0.0
2015-Jan-28 14:32N 29°59' W 090°01'1 0.8
2015-Jan-28 13:24N 29°60' W 090°01'6 6.4
2015-Jan-28 12:32N 30°01' W 089°55'2 1.5
2015-Jan-28 11:14N 30°01' W 089°53'0 0.4
2015-Jan-28 10:31N 30°01' W 089°53'5 5.4
2015-Jan-28 09:33N 29°60' W 089°59'3 3.0
2015-Jan-28 08:33N 29°58' W 090°02'3 2.9
2015-Jan-28 07:32N 29°56' W 089°59'1 0.0
2015-Jan-27 11:27N 29°56' W 089°58'0 0.0
2015-Jan-27 09:20N 29°56' W 089°58'0 0.0
2015-Jan-27 08:31N 29°56' W 089°58'2 0.9
2015-Jan-27 06:31N 29°56' W 090°00'2 1.8
2015-Jan-27 05:33N 29°56' W 089°59'0 0.2
2015-Jan-27 04:31N 29°56' W 089°58'0 0.0
2015-Jan-27 03:23N 29°56' W 089°58'0 0.0
2015-Jan-27 02:33N 29°56' W 089°58'0 0.0
2015-Jan-26 19:32N 29°56' W 089°58'0 0.0
2015-Jan-26 18:20N 29°56' W 089°58'0 0.0
2015-Jan-26 16:15N 29°56' W 089°58'0 0.0
2015-Jan-26 15:29N 29°56' W 089°58'4 0.6
2015-Jan-26 08:33N 29°60' W 090°01'1 0.5
2015-Jan-26 07:32N 29°60' W 090°01'1 1.0
2015-Jan-26 06:33N 29°59' W 090°01'2 1.6
2015-Jan-26 05:32N 29°57' W 090°02'1 0.5
2015-Jan-26 04:33N 29°57' W 090°02'2 1.9
2015-Jan-26 03:27N 29°56' W 090°00'0 0.3
2015-Jan-26 02:33N 29°56' W 090°00'0 0.0
2015-Jan-26 01:33N 29°56' W 090°00'2 1.8
2015-Jan-26 00:32N 29°55' W 089°58'1 1.0
2015-Jan-25 23:32N 29°55' W 089°57'5 4.6
2015-Jan-25 22:33N 29°58' W 090°02'2 2.3
2015-Jan-25 21:33N 29°60' W 090°00'2 2.2
2015-Jan-25 20:30N 29°58' W 090°02'3 0.2
2015-Jan-24 23:13N 29°60' W 089°59'3 4.2
2015-Jan-24 22:26N 29°58' W 090°02'0 0.3
2015-Jan-24 21:31N 29°58' W 090°02'0 0.2
2015-Jan-24 20:29N 29°58' W 090°02'2 2.0
2015-Jan-24 19:32N 29°60' W 090°01'2 0.6
2015-Jan-24 16:29N 29°60' W 089°59'3 3.1
2015-Jan-24 15:32N 29°58' W 090°02'0 0.3
2015-Jan-24 14:28N 29°58' W 090°02'3 2.4
2015-Jan-24 13:23N 29°56' W 089°60'1 1.0
2015-Jan-24 12:31N 29°56' W 090°00'0 0.0
2015-Jan-24 11:33N 29°56' W 090°00'0 0.0
2015-Jan-24 10:32N 29°56' W 090°00'0 0.0
2015-Jan-24 09:24N 29°56' W 090°00'0 0.0
2015-Jan-24 08:32N 29°56' W 090°00'0 0.0
2015-Jan-24 07:33N 29°56' W 090°00'0 0.1
2015-Jan-24 06:32N 29°56' W 090°00'2 2.1
2015-Jan-24 05:32N 29°55' W 089°58'1 0.5
2015-Jan-24 04:16N 29°55' W 089°59'1 1.4
2015-Jan-24 03:32N 29°54' W 089°59'2 2.2
2015-Jan-24 02:33N 29°55' W 089°57'0 0.1
2015-Jan-24 01:17N 29°55' W 089°57'5 6.2
2015-Jan-24 00:33N 29°58' W 090°02'3 2.6
2015-Jan-23 23:32N 29°60' W 089°60'2 1.3
2015-Jan-23 22:13N 30°00' W 089°58'0 0.1
2015-Jan-23 20:07N 30°00' W 089°58'4 5.7
2015-Jan-23 19:26N 29°58' W 090°02'1 0.8
2015-Jan-23 18:27N 29°57' W 090°01'1 1.0
2015-Jan-23 17:10N 29°56' W 090°00'0 0.0
2015-Jan-23 16:20N 29°56' W 090°00'0 0.0
2015-Jan-23 15:04N 29°56' W 090°00'0 0.0
2015-Jan-23 14:17N 29°56' W 090°00'0 0.0
2015-Jan-23 13:27N 29°56' W 090°00'0 0.0
2015-Jan-23 11:25N 29°56' W 090°00'0 0.0
2015-Jan-23 10:16N 29°56' W 090°00'0 0.1
2015-Jan-23 09:32N 29°56' W 090°00'1 0.3
2015-Jan-23 07:29N 29°56' W 089°60'1 0.5
2015-Jan-23 06:17N 29°56' W 090°00'0 0.0
2015-Jan-23 05:11N 29°56' W 090°00'0 0.0
2015-Jan-23 04:29N 29°56' W 090°00'0 0.0
2015-Jan-23 03:29N 29°56' W 090°00'0 0.0
2015-Jan-23 02:23N 29°56' W 090°00'0 0.0
2015-Jan-23 01:32N 29°56' W 090°00'0 0.0
2015-Jan-23 00:27N 29°56' W 090°00'3 0.3
2015-Jan-22 14:14N 29°59' W 090°01'0 0.1
2015-Jan-22 12:30N 29°59' W 090°01'0 0.0
2015-Jan-22 11:15N 29°59' W 090°01'0 0.0
2015-Jan-22 10:23N 29°59' W 090°01'0 0.0
2015-Jan-22 09:06N 29°59' W 090°01'0 0.0
2015-Jan-22 08:34N 29°59' W 090°01'0 0.0
2015-Jan-22 07:31N 29°59' W 090°01'0 0.0
2015-Jan-22 06:33N 29°59' W 090°01'0 0.0
2015-Jan-22 05:29N 29°59' W 090°01'0 0.0
2015-Jan-22 04:32N 29°59' W 090°01'0 0.0
2015-Jan-22 03:30N 29°59' W 090°01'0 0.0
2015-Jan-22 02:33N 29°59' W 090°01'0 0.0
2015-Jan-22 01:32N 29°59' W 090°01'0 0.0
2015-Jan-22 00:31N 29°59' W 090°01'0 0.3
2015-Jan-21 23:31N 29°59' W 090°01'0 0.0
2015-Jan-21 22:50N 29°59' W 090°01'0 0.0
2015-Jan-21 22:46N 29°59' W 090°01'0 0.0
2015-Jan-21 22:31N 29°59' W 090°01'0 0.1
2015-Jan-21 21:20N 29°59' W 090°01'0 0.0
2015-Jan-21 20:32N 29°59' W 090°01'0 0.0
2015-Jan-21 19:32N 29°59' W 090°01'  

Dump ship's entire track history